sensor_id;sensor_type;location;lat;lon;timestamp;temperature;humidity
25302;DHT22;13243;50.888;4.724;2023-06-05T00:00:57;18.30;99.90
25302;DHT22;13243;50.888;4.724;2023-06-05T00:05:59;18.10;99.90
25302;DHT22;13243;50.888;4.724;2023-06-05T00:11:01;18.20;99.90
25302;DHT22;13243;50.888;4.724;2023-06-05T00:16:03;18.00;99.90
25302;DHT22;13243;50.888;4.724;2023-06-05T00:21:05;17.90;99.90
25302;DHT22;13243;50.888;4.724;2023-06-05T00:26:07;18.00;99.90
25302;DHT22;13243;50.888;4.724;2023-06-05T00:31:09;18.00;99.90
25302;DHT22;13243;50.888;4.724;2023-06-05T00:36:11;17.90;99.90
25302;DHT22;13243;50.888;4.724;2023-06-05T00:41:13;17.80;99.90
25302;DHT22;13243;50.888;4.724;2023-06-05T00:46:15;17.80;99.90
25302;DHT22;13243;50.888;4.724;2023-06-05T00:51:18;17.60;99.90
25302;DHT22;13243;50.888;4.724;2023-06-05T00:56:20;17.40;99.90
25302;DHT22;13243;50.888;4.724;2023-06-05T01:01:24;17.50;99.90
25302;DHT22;13243;50.888;4.724;2023-06-05T01:06:31;17.60;99.90
25302;DHT22;13243;50.888;4.724;2023-06-05T01:17:00;17.40;99.90
25302;DHT22;13243;50.888;4.724;2023-06-05T01:22:04;17.30;99.90
25302;DHT22;13243;50.888;4.724;2023-06-05T01:27:18;17.30;99.90
25302;DHT22;13243;50.888;4.724;2023-06-05T01:32:28;17.20;99.90
25302;DHT22;13243;50.888;4.724;2023-06-05T01:37:35;17.10;99.90
25302;DHT22;13243;50.888;4.724;2023-06-05T01:42:38;17.00;99.90
25302;DHT22;13243;50.888;4.724;2023-06-05T01:47:42;17.10;99.90
25302;DHT22;13243;50.888;4.724;2023-06-05T01:52:44;16.90;99.90
25302;DHT22;13243;50.888;4.724;2023-06-05T01:57:48;16.70;99.90
25302;DHT22;13243;50.888;4.724;2023-06-05T02:02:50;16.70;99.90
25302;DHT22;13243;50.888;4.724;2023-06-05T02:07:53;16.80;99.90
25302;DHT22;13243;50.888;4.724;2023-06-05T02:13:00;16.70;99.90
25302;DHT22;13243;50.888;4.724;2023-06-05T02:18:03;16.60;99.90
25302;DHT22;13243;50.888;4.724;2023-06-05T02:23:06;16.60;99.90
25302;DHT22;13243;50.888;4.724;2023-06-05T02:28:08;16.40;99.90
25302;DHT22;13243;50.888;4.724;2023-06-05T02:33:11;16.30;99.90
25302;DHT22;13243;50.888;4.724;2023-06-05T02:38:13;16.20;99.90
25302;DHT22;13243;50.888;4.724;2023-06-05T02:43:16;16.20;99.90
25302;DHT22;13243;50.888;4.724;2023-06-05T02:48:19;16.10;99.90
25302;DHT22;13243;50.888;4.724;2023-06-05T02:53:21;16.20;99.90
25302;DHT22;13243;50.888;4.724;2023-06-05T02:58:23;16.00;99.90
25302;DHT22;13243;50.888;4.724;2023-06-05T03:03:24;16.10;99.90
25302;DHT22;13243;50.888;4.724;2023-06-05T03:08:29;15.90;99.90
25302;DHT22;13243;50.888;4.724;2023-06-05T03:13:31;15.70;99.90
25302;DHT22;13243;50.888;4.724;2023-06-05T03:18:34;15.50;99.90
25302;DHT22;13243;50.888;4.724;2023-06-05T03:23:36;15.60;99.90
25302;DHT22;13243;50.888;4.724;2023-06-05T03:28:38;15.50;99.90
25302;DHT22;13243;50.888;4.724;2023-06-05T03:33:39;15.40;99.90
25302;DHT22;13243;50.888;4.724;2023-06-05T03:38:41;15.00;99.90
25302;DHT22;13243;50.888;4.724;2023-06-05T03:43:43;15.10;99.90
25302;DHT22;13243;50.888;4.724;2023-06-05T03:48:46;15.30;99.90
25302;DHT22;13243;50.888;4.724;2023-06-05T03:53:48;15.30;99.90
25302;DHT22;13243;50.888;4.724;2023-06-05T03:58:56;15.00;99.90
25302;DHT22;13243;50.888;4.724;2023-06-05T04:03:59;14.80;99.90
25302;DHT22;13243;50.888;4.724;2023-06-05T04:09:03;14.90;99.90
25302;DHT22;13243;50.888;4.724;2023-06-05T04:14:12;15.00;99.90
25302;DHT22;13243;50.888;4.724;2023-06-05T04:19:14;15.20;99.90
25302;DHT22;13243;50.888;4.724;2023-06-05T04:24:16;15.20;99.90
25302;DHT22;13243;50.888;4.724;2023-06-05T04:29:17;15.20;99.90
25302;DHT22;13243;50.888;4.724;2023-06-05T04:34:20;15.10;99.90
25302;DHT22;13243;50.888;4.724;2023-06-05T04:39:22;15.20;99.90
25302;DHT22;13243;50.888;4.724;2023-06-05T04:44:25;15.20;99.90
25302;DHT22;13243;50.888;4.724;2023-06-05T04:49:27;15.20;99.90
25302;DHT22;13243;50.888;4.724;2023-06-05T04:54:30;15.20;99.90
25302;DHT22;13243;50.888;4.724;2023-06-05T04:59:32;15.00;99.90
25302;DHT22;13243;50.888;4.724;2023-06-05T05:04:34;15.10;99.90
25302;DHT22;13243;50.888;4.724;2023-06-05T05:09:36;15.20;99.90
25302;DHT22;13243;50.888;4.724;2023-06-05T05:14:38;15.10;99.90
25302;DHT22;13243;50.888;4.724;2023-06-05T05:19:44;15.10;99.90
25302;DHT22;13243;50.888;4.724;2023-06-05T05:24:46;15.00;99.90
25302;DHT22;13243;50.888;4.724;2023-06-05T05:29:47;14.70;99.90
25302;DHT22;13243;50.888;4.724;2023-06-05T05:34:49;15.00;99.90
25302;DHT22;13243;50.888;4.724;2023-06-05T05:39:52;15.30;99.90
25302;DHT22;13243;50.888;4.724;2023-06-05T05:44:54;15.30;99.90
25302;DHT22;13243;50.888;4.724;2023-06-05T05:49:56;15.40;99.90
25302;DHT22;13243;50.888;4.724;2023-06-05T05:54:58;15.50;99.90
25302;DHT22;13243;50.888;4.724;2023-06-05T06:00:05;15.40;99.90
25302;DHT22;13243;50.888;4.724;2023-06-05T06:05:14;15.50;99.90
25302;DHT22;13243;50.888;4.724;2023-06-05T06:10:16;15.40;99.90
25302;DHT22;13243;50.888;4.724;2023-06-05T06:15:18;15.70;99.90
25302;DHT22;13243;50.888;4.724;2023-06-05T06:20:20;16.00;99.90
25302;DHT22;13243;50.888;4.724;2023-06-05T06:25:23;15.80;99.90
25302;DHT22;13243;50.888;4.724;2023-06-05T06:30:30;16.00;99.90
25302;DHT22;13243;50.888;4.724;2023-06-05T06:35:35;16.10;99.90
25302;DHT22;13243;50.888;4.724;2023-06-05T06:40:38;16.20;99.90
25302;DHT22;13243;50.888;4.724;2023-06-05T06:45:40;16.30;99.90
25302;DHT22;13243;50.888;4.724;2023-06-05T06:50:42;16.30;99.90
25302;DHT22;13243;50.888;4.724;2023-06-05T06:55:44;16.40;99.90
25302;DHT22;13243;50.888;4.724;2023-06-05T07:00:46;16.40;99.90
25302;DHT22;13243;50.888;4.724;2023-06-05T07:05:49;16.60;99.90
25302;DHT22;13243;50.888;4.724;2023-06-05T07:10:53;16.80;99.90
25302;DHT22;13243;50.888;4.724;2023-06-05T07:15:58;16.90;99.90
25302;DHT22;13243;50.888;4.724;2023-06-05T07:21:00;16.90;99.90
25302;DHT22;13243;50.888;4.724;2023-06-05T07:26:02;17.00;99.90
25302;DHT22;13243;50.888;4.724;2023-06-05T07:31:04;17.30;99.90
25302;DHT22;13243;50.888;4.724;2023-06-05T07:36:06;17.50;99.90
25302;DHT22;13243;50.888;4.724;2023-06-05T07:41:09;17.50;99.90
25302;DHT22;13243;50.888;4.724;2023-06-05T07:46:12;17.70;99.90
25302;DHT22;13243;50.888;4.724;2023-06-05T07:51:14;17.70;99.90
25302;DHT22;13243;50.888;4.724;2023-06-05T07:56:17;17.70;99.90
25302;DHT22;13243;50.888;4.724;2023-06-05T08:01:19;17.90;99.90
25302;DHT22;13243;50.888;4.724;2023-06-05T08:06:24;18.10;99.90
25302;DHT22;13243;50.888;4.724;2023-06-05T08:11:26;18.30;99.90
25302;DHT22;13243;50.888;4.724;2023-06-05T08:16:28;18.40;99.90
25302;DHT22;13243;50.888;4.724;2023-06-05T08:21:30;18.40;99.90
25302;DHT22;13243;50.888;4.724;2023-06-05T08:26:32;18.50;99.90
25302;DHT22;13243;50.888;4.724;2023-06-05T08:31:34;18.80;99.90
25302;DHT22;13243;50.888;4.724;2023-06-05T08:36:38;19.00;99.90
25302;DHT22;13243;50.888;4.724;2023-06-05T08:41:42;19.30;99.90
25302;DHT22;13243;50.888;4.724;2023-06-05T08:46:44;19.10;99.90
25302;DHT22;13243;50.888;4.724;2023-06-05T08:51:49;19.40;99.90
25302;DHT22;13243;50.888;4.724;2023-06-05T08:56:54;19.60;99.90
25302;DHT22;13243;50.888;4.724;2023-06-05T09:01:56;19.30;99.90
25302;DHT22;13243;50.888;4.724;2023-06-05T09:06:59;19.70;99.90
25302;DHT22;13243;50.888;4.724;2023-06-05T09:12:07;19.90;99.90
25302;DHT22;13243;50.888;4.724;2023-06-05T09:17:12;20.30;99.90
25302;DHT22;13243;50.888;4.724;2023-06-05T09:22:15;20.00;99.90
25302;DHT22;13243;50.888;4.724;2023-06-05T09:27:18;20.10;99.90
25302;DHT22;13243;50.888;4.724;2023-06-05T09:32:22;20.50;99.90
25302;DHT22;13243;50.888;4.724;2023-06-05T09:37:36;20.50;99.90
25302;DHT22;13243;50.888;4.724;2023-06-05T09:42:38;21.10;99.90
25302;DHT22;13243;50.888;4.724;2023-06-05T09:47:40;21.30;99.90
25302;DHT22;13243;50.888;4.724;2023-06-05T09:52:56;21.30;99.90
25302;DHT22;13243;50.888;4.724;2023-06-05T09:57:59;21.20;99.90
25302;DHT22;13243;50.888;4.724;2023-06-05T10:03:05;21.60;99.90
25302;DHT22;13243;50.888;4.724;2023-06-05T10:08:11;21.50;99.90
25302;DHT22;13243;50.888;4.724;2023-06-05T10:13:14;21.60;99.90
25302;DHT22;13243;50.888;4.724;2023-06-05T10:18:19;21.90;99.90
25302;DHT22;13243;50.888;4.724;2023-06-05T10:23:22;22.00;99.90
25302;DHT22;13243;50.888;4.724;2023-06-05T10:28:56;22.10;99.90
25302;DHT22;13243;50.888;4.724;2023-06-05T10:39:36;22.70;99.90
25302;DHT22;13243;50.888;4.724;2023-06-05T10:44:42;22.60;99.90
25302;DHT22;13243;50.888;4.724;2023-06-05T10:55:23;23.30;99.90
25302;DHT22;13243;50.888;4.724;2023-06-05T11:00:25;23.30;99.90
25302;DHT22;13243;50.888;4.724;2023-06-05T11:05:28;23.20;99.90
25302;DHT22;13243;50.888;4.724;2023-06-05T11:10:30;23.70;99.90
25302;DHT22;13243;50.888;4.724;2023-06-05T11:15:37;23.40;99.90
25302;DHT22;13243;50.888;4.724;2023-06-05T11:25:55;24.00;99.90
25302;DHT22;13243;50.888;4.724;2023-06-05T11:31:00;24.00;99.90
25302;DHT22;13243;50.888;4.724;2023-06-05T11:36:07;24.30;99.90
25302;DHT22;13243;50.888;4.724;2023-06-05T11:41:09;24.20;99.90
25302;DHT22;13243;50.888;4.724;2023-06-05T11:46:11;24.30;99.90
25302;DHT22;13243;50.888;4.724;2023-06-05T11:51:14;24.70;99.90
25302;DHT22;13243;50.888;4.724;2023-06-05T11:56:16;24.60;99.90
25302;DHT22;13243;50.888;4.724;2023-06-05T12:01:20;24.90;99.90
25302;DHT22;13243;50.888;4.724;2023-06-05T12:06:27;25.00;99.90
25302;DHT22;13243;50.888;4.724;2023-06-05T12:11:30;25.50;99.90
25302;DHT22;13243;50.888;4.724;2023-06-05T12:16:38;25.30;99.90
25302;DHT22;13243;50.888;4.724;2023-06-05T12:21:41;25.50;99.90
25302;DHT22;13243;50.888;4.724;2023-06-05T12:26:58;25.80;99.90
25302;DHT22;13243;50.888;4.724;2023-06-05T12:32:02;26.40;99.90
25302;DHT22;13243;50.888;4.724;2023-06-05T12:37:04;26.30;99.90
25302;DHT22;13243;50.888;4.724;2023-06-05T12:42:07;26.90;99.90
25302;DHT22;13243;50.888;4.724;2023-06-05T12:47:09;26.30;99.70
25302;DHT22;13243;50.888;4.724;2023-06-05T12:52:13;26.20;99.90
25302;DHT22;13243;50.888;4.724;2023-06-05T12:57:15;27.00;99.90
25302;DHT22;13243;50.888;4.724;2023-06-05T13:02:17;26.90;99.90
25302;DHT22;13243;50.888;4.724;2023-06-05T13:07:19;27.20;99.80
25302;DHT22;13243;50.888;4.724;2023-06-05T13:12:23;27.40;99.90
25302;DHT22;13243;50.888;4.724;2023-06-05T13:17:25;27.50;99.90
25302;DHT22;13243;50.888;4.724;2023-06-05T13:22:27;28.00;99.10
25302;DHT22;13243;50.888;4.724;2023-06-05T13:27:29;28.40;99.10
25302;DHT22;13243;50.888;4.724;2023-06-05T13:32:32;28.00;99.00
25302;DHT22;13243;50.888;4.724;2023-06-05T13:37:37;28.00;99.20
25302;DHT22;13243;50.888;4.724;2023-06-05T13:42:39;27.50;99.60
25302;DHT22;13243;50.888;4.724;2023-06-05T13:47:41;28.10;99.30
25302;DHT22;13243;50.888;4.724;2023-06-05T13:52:45;28.40;98.30
25302;DHT22;13243;50.888;4.724;2023-06-05T13:57:47;28.60;98.50
25302;DHT22;13243;50.888;4.724;2023-06-05T14:02:49;27.80;99.20
25302;DHT22;13243;50.888;4.724;2023-06-05T14:07:54;28.80;97.90
25302;DHT22;13243;50.888;4.724;2023-06-05T14:12:56;29.10;98.00
25302;DHT22;13243;50.888;4.724;2023-06-05T14:18:01;29.20;98.40
25302;DHT22;13243;50.888;4.724;2023-06-05T14:23:03;29.50;97.10
25302;DHT22;13243;50.888;4.724;2023-06-05T14:28:05;29.50;98.40
25302;DHT22;13243;50.888;4.724;2023-06-05T14:33:10;29.90;97.90
25302;DHT22;13243;50.888;4.724;2023-06-05T14:38:12;30.20;97.40
25302;DHT22;13243;50.888;4.724;2023-06-05T14:43:14;30.40;97.00
25302;DHT22;13243;50.888;4.724;2023-06-05T14:48:17;30.30;97.30
25302;DHT22;13243;50.888;4.724;2023-06-05T14:53:19;30.20;96.80
25302;DHT22;13243;50.888;4.724;2023-06-05T14:58:21;30.30;96.80
25302;DHT22;13243;50.888;4.724;2023-06-05T15:03:23;30.80;97.40
25302;DHT22;13243;50.888;4.724;2023-06-05T15:08:25;30.40;97.30
25302;DHT22;13243;50.888;4.724;2023-06-05T15:13:27;30.50;96.40
25302;DHT22;13243;50.888;4.724;2023-06-05T15:18:29;31.00;96.20
25302;DHT22;13243;50.888;4.724;2023-06-05T15:23:30;30.70;96.30
25302;DHT22;13243;50.888;4.724;2023-06-05T15:28:32;30.90;96.00
25302;DHT22;13243;50.888;4.724;2023-06-05T15:33:34;31.40;96.60
25302;DHT22;13243;50.888;4.724;2023-06-05T15:38:36;30.90;95.80
25302;DHT22;13243;50.888;4.724;2023-06-05T15:43:38;30.90;96.00
25302;DHT22;13243;50.888;4.724;2023-06-05T15:48:40;31.60;95.50
25302;DHT22;13243;50.888;4.724;2023-06-05T15:53:42;31.50;95.70
25302;DHT22;13243;50.888;4.724;2023-06-05T15:58:58;30.30;96.50
25302;DHT22;13243;50.888;4.724;2023-06-05T16:04:00;29.90;96.40
25302;DHT22;13243;50.888;4.724;2023-06-05T16:09:03;30.10;95.90
25302;DHT22;13243;50.888;4.724;2023-06-05T16:14:05;30.90;96.20
25302;DHT22;13243;50.888;4.724;2023-06-05T16:19:07;31.00;95.90
25302;DHT22;13243;50.888;4.724;2023-06-05T16:24:08;30.90;96.10
25302;DHT22;13243;50.888;4.724;2023-06-05T16:29:10;31.30;96.10
25302;DHT22;13243;50.888;4.724;2023-06-05T16:34:13;31.10;95.80
25302;DHT22;13243;50.888;4.724;2023-06-05T16:39:15;31.50;95.90
25302;DHT22;13243;50.888;4.724;2023-06-05T16:44:17;31.30;96.00
25302;DHT22;13243;50.888;4.724;2023-06-05T16:49:20;31.60;96.60
25302;DHT22;13243;50.888;4.724;2023-06-05T16:54:23;31.20;95.80
25302;DHT22;13243;50.888;4.724;2023-06-05T16:59:25;30.90;96.10
25302;DHT22;13243;50.888;4.724;2023-06-05T17:04:26;30.20;95.60
25302;DHT22;13243;50.888;4.724;2023-06-05T17:09:29;29.70;96.30
25302;DHT22;13243;50.888;4.724;2023-06-05T17:14:33;29.70;96.50
25302;DHT22;13243;50.888;4.724;2023-06-05T17:19:35;29.90;96.40
25302;DHT22;13243;50.888;4.724;2023-06-05T17:24:37;29.70;96.40
25302;DHT22;13243;50.888;4.724;2023-06-05T17:29:39;29.70;96.50
25302;DHT22;13243;50.888;4.724;2023-06-05T17:34:41;29.50;96.60
25302;DHT22;13243;50.888;4.724;2023-06-05T17:39:43;29.40;96.40
25302;DHT22;13243;50.888;4.724;2023-06-05T17:44:45;29.20;97.10
25302;DHT22;13243;50.888;4.724;2023-06-05T17:49:47;29.10;97.60
25302;DHT22;13243;50.888;4.724;2023-06-05T17:54:50;28.50;98.50
25302;DHT22;13243;50.888;4.724;2023-06-05T17:59:53;28.10;98.70
25302;DHT22;13243;50.888;4.724;2023-06-05T18:04:55;27.50;99.10
25302;DHT22;13243;50.888;4.724;2023-06-05T18:09:58;26.90;99.50
25302;DHT22;13243;50.888;4.724;2023-06-05T18:15:01;26.30;99.90
25302;DHT22;13243;50.888;4.724;2023-06-05T18:20:03;25.90;99.90
25302;DHT22;13243;50.888;4.724;2023-06-05T18:25:06;25.50;99.90
25302;DHT22;13243;50.888;4.724;2023-06-05T18:30:08;25.10;99.90
25302;DHT22;13243;50.888;4.724;2023-06-05T18:35:11;25.20;99.90
25302;DHT22;13243;50.888;4.724;2023-06-05T18:40:13;25.20;99.90
25302;DHT22;13243;50.888;4.724;2023-06-05T18:45:14;25.00;99.90
25302;DHT22;13243;50.888;4.724;2023-06-05T18:50:17;24.90;99.90
25302;DHT22;13243;50.888;4.724;2023-06-05T18:55:20;24.40;99.90
25302;DHT22;13243;50.888;4.724;2023-06-05T19:00:22;24.40;99.90
25302;DHT22;13243;50.888;4.724;2023-06-05T19:05:26;24.20;99.90
25302;DHT22;13243;50.888;4.724;2023-06-05T19:10:28;23.90;99.90
25302;DHT22;13243;50.888;4.724;2023-06-05T19:15:30;23.80;99.90
25302;DHT22;13243;50.888;4.724;2023-06-05T19:20:33;23.70;99.90
25302;DHT22;13243;50.888;4.724;2023-06-05T19:25:36;23.40;99.90
25302;DHT22;13243;50.888;4.724;2023-06-05T19:30:38;23.30;99.90
25302;DHT22;13243;50.888;4.724;2023-06-05T19:35:40;23.40;99.90
25302;DHT22;13243;50.888;4.724;2023-06-05T19:40:42;22.70;99.90
25302;DHT22;13243;50.888;4.724;2023-06-05T19:45:44;22.70;99.90
25302;DHT22;13243;50.888;4.724;2023-06-05T19:50:46;22.70;99.90
25302;DHT22;13243;50.888;4.724;2023-06-05T19:55:48;22.60;99.90
25302;DHT22;13243;50.888;4.724;2023-06-05T20:00:50;22.70;99.90
25302;DHT22;13243;50.888;4.724;2023-06-05T20:05:52;22.40;99.90
25302;DHT22;13243;50.888;4.724;2023-06-05T20:10:54;22.10;99.90
25302;DHT22;13243;50.888;4.724;2023-06-05T20:15:57;21.80;99.90
25302;DHT22;13243;50.888;4.724;2023-06-05T20:21:01;21.80;99.90
25302;DHT22;13243;50.888;4.724;2023-06-05T20:26:03;21.50;99.90
25302;DHT22;13243;50.888;4.724;2023-06-05T20:31:08;21.30;99.90
25302;DHT22;13243;50.888;4.724;2023-06-05T20:36:11;21.40;99.90
25302;DHT22;13243;50.888;4.724;2023-06-05T20:41:17;21.10;99.90
25302;DHT22;13243;50.888;4.724;2023-06-05T20:46:21;21.20;99.90
25302;DHT22;13243;50.888;4.724;2023-06-05T20:51:24;21.10;99.90
25302;DHT22;13243;50.888;4.724;2023-06-05T20:56:29;21.00;99.90
25302;DHT22;13243;50.888;4.724;2023-06-05T21:01:33;20.80;99.90
25302;DHT22;13243;50.888;4.724;2023-06-05T21:06:35;20.80;99.90
25302;DHT22;13243;50.888;4.724;2023-06-05T21:11:39;20.80;99.90
25302;DHT22;13243;50.888;4.724;2023-06-05T21:16:41;20.70;99.90
25302;DHT22;13243;50.888;4.724;2023-06-05T21:21:44;20.60;99.90
25302;DHT22;13243;50.888;4.724;2023-06-05T21:26:47;20.50;99.90
25302;DHT22;13243;50.888;4.724;2023-06-05T21:31:49;20.40;99.90
25302;DHT22;13243;50.888;4.724;2023-06-05T21:36:54;20.10;99.90
25302;DHT22;13243;50.888;4.724;2023-06-05T21:41:56;20.00;99.90
25302;DHT22;13243;50.888;4.724;2023-06-05T21:46:58;20.00;99.90
25302;DHT22;13243;50.888;4.724;2023-06-05T21:52:00;20.00;99.90
25302;DHT22;13243;50.888;4.724;2023-06-05T21:57:02;19.90;99.90
25302;DHT22;13243;50.888;4.724;2023-06-05T22:02:04;19.70;99.90
25302;DHT22;13243;50.888;4.724;2023-06-05T22:07:06;19.60;99.90
25302;DHT22;13243;50.888;4.724;2023-06-05T22:12:08;19.50;99.90
25302;DHT22;13243;50.888;4.724;2023-06-05T22:17:13;19.40;99.90
25302;DHT22;13243;50.888;4.724;2023-06-05T22:22:15;19.30;99.90
25302;DHT22;13243;50.888;4.724;2023-06-05T22:27:17;19.30;99.90
25302;DHT22;13243;50.888;4.724;2023-06-05T22:32:24;19.20;99.90
25302;DHT22;13243;50.888;4.724;2023-06-05T22:37:27;19.00;99.90
25302;DHT22;13243;50.888;4.724;2023-06-05T22:42:31;19.10;99.90
25302;DHT22;13243;50.888;4.724;2023-06-05T22:47:33;19.10;99.90
25302;DHT22;13243;50.888;4.724;2023-06-05T22:52:36;18.80;99.90
25302;DHT22;13243;50.888;4.724;2023-06-05T22:57:39;18.80;99.90
25302;DHT22;13243;50.888;4.724;2023-06-05T23:02:42;18.50;99.90
25302;DHT22;13243;50.888;4.724;2023-06-05T23:07:45;18.60;99.90
25302;DHT22;13243;50.888;4.724;2023-06-05T23:12:47;18.40;99.90
25302;DHT22;13243;50.888;4.724;2023-06-05T23:17:49;18.50;99.90
25302;DHT22;13243;50.888;4.724;2023-06-05T23:22:51;18.40;99.90
25302;DHT22;13243;50.888;4.724;2023-06-05T23:27:53;18.20;99.90
25302;DHT22;13243;50.888;4.724;2023-06-05T23:32:55;18.20;99.90
25302;DHT22;13243;50.888;4.724;2023-06-05T23:37:57;18.10;99.90
25302;DHT22;13243;50.888;4.724;2023-06-05T23:42:59;18.00;99.90
25302;DHT22;13243;50.888;4.724;2023-06-05T23:48:01;17.90;99.90
25302;DHT22;13243;50.888;4.724;2023-06-05T23:53:03;17.80;99.90
25302;DHT22;13243;50.888;4.724;2023-06-05T23:58:05;17.80;99.90
